Bill, Wyoming
Current Conditions -  °F | °C
As of 8:53 AM on Thursday 30 Oct 2014 (Local Time) from KDGW Reporting Station
Clear Clear  
Wind Chill: 31°   Ceiling: Unl
Heat Index: 35°   Visibility: 10mi
Dew Point: 22°   Wind: 5mph
Humidity: 59%   Direction: 310°NW
Pressure: 30.37"   Gusts: NA
Location:  42.76°N, 105.39°W
Report Text: KDGW 301453Z AUTO 31004KT 10SM CLR 02/M06 A3037 RMK AO2 SLP284 T00171056 53013
Loading
Personal Weather Stations






























Interactive Weather Map
Tropical Storm Tracking
New forecast layout! Learn more

10-Day Weather Forecast

Advertisements
Track Severe Weather on mobile